createdAt,value
2018-10-16T00:00:34.257Z,99516.86
2018-10-16T00:03:01.851Z,99521.64
2018-10-16T00:05:29.370Z,99521.53
2018-10-16T00:07:56.936Z,99520.09
2018-10-16T00:10:24.608Z,99524.29
2018-10-16T00:12:52.152Z,99517.81
2018-10-16T00:15:19.659Z,99526.48
2018-10-16T00:17:47.303Z,99522.95
2018-10-16T00:20:14.836Z,99520.44
2018-10-16T00:22:42.393Z,99525.02
2018-10-16T00:25:09.898Z,99525.75
2018-10-16T00:27:37.418Z,99524.84
2018-10-16T00:30:04.974Z,99536.52
2018-10-16T00:32:32.504Z,99538.80
2018-10-16T00:35:00.057Z,99533.90
2018-10-16T00:37:29.072Z,99538.00
2018-10-16T00:39:58.601Z,99538.38
2018-10-16T00:42:27.123Z,99537.36
2018-10-16T00:44:54.725Z,99540.80
2018-10-16T00:47:22.283Z,99533.24
2018-10-16T00:49:53.327Z,99541.23
2018-10-16T00:52:20.846Z,99543.48
2018-10-16T00:54:48.446Z,99542.97
2018-10-16T00:57:16.002Z,99546.16
2018-10-16T00:59:43.507Z,99545.58
2018-10-16T01:02:11.045Z,99546.83
2018-10-16T01:04:38.572Z,99545.00
2018-10-16T01:07:06.129Z,99548.44
2018-10-16T01:09:33.688Z,99554.57
2018-10-16T01:12:01.237Z,99546.52
2018-10-16T01:14:28.866Z,99550.95
2018-10-16T01:16:56.436Z,99553.48
2018-10-16T01:19:27.086Z,99557.02
2018-10-16T01:21:54.591Z,99562.55
2018-10-16T01:24:22.209Z,99552.06
2018-10-16T01:26:49.755Z,99554.06
2018-10-16T01:29:17.308Z,99552.30
2018-10-16T01:31:44.833Z,99553.61
2018-10-16T01:34:12.365Z,99552.81
2018-10-16T01:36:43.175Z,99563.64
2018-10-16T01:39:11.362Z,99556.31
2018-10-16T01:41:38.878Z,99559.78
2018-10-16T01:44:06.414Z,99557.53
2018-10-16T01:46:33.932Z,99556.16
2018-10-16T01:49:02.575Z,99554.81
2018-10-16T01:51:30.630Z,99562.30
2018-10-16T01:53:58.155Z,99558.44
2018-10-16T01:56:29.377Z,99554.41
2018-10-16T01:58:57.069Z,99558.86
2018-10-16T02:01:24.589Z,99551.89
2018-10-16T02:03:52.206Z,99547.27
2018-10-16T02:06:19.730Z,99553.25
2018-10-16T02:08:47.243Z,99548.86
2018-10-16T02:11:14.799Z,99551.47
2018-10-16T02:13:42.317Z,99556.41
2018-10-16T02:16:09.866Z,99550.12
2018-10-16T02:18:37.392Z,99556.34
2018-10-16T02:21:04.918Z,99559.54
2018-10-16T02:23:32.441Z,99553.25
2018-10-16T02:25:59.999Z,99557.76
2018-10-16T02:28:27.551Z,99559.62
2018-10-16T02:30:55.109Z,99560.02
2018-10-16T02:33:22.629Z,99560.81
2018-10-16T02:35:50.169Z,99564.83
2018-10-16T02:38:17.704Z,99563.34
2018-10-16T02:40:45.245Z,99568.35
2018-10-16T02:43:12.804Z,99575.56
2018-10-16T02:45:40.353Z,99569.75
2018-10-16T02:48:07.900Z,99574.33
2018-10-16T02:50:35.421Z,99576.60
2018-10-16T02:53:03.029Z,99574.87
2018-10-16T02:55:30.571Z,99574.52
2018-10-16T02:57:58.104Z,99576.82
2018-10-16T03:00:25.623Z,99577.03
2018-10-16T03:02:53.168Z,99583.36
2018-10-16T03:05:20.719Z,99580.98
2018-10-16T03:07:48.257Z,99576.43
2018-10-16T03:10:15.791Z,99581.11
2018-10-16T03:12:43.306Z,99582.49
2018-10-16T03:15:10.873Z,99587.18
2018-10-16T03:17:38.423Z,99586.45
2018-10-16T03:20:05.956Z,99587.22
2018-10-16T03:22:33.523Z,99586.19
2018-10-16T03:25:01.035Z,99586.14
2018-10-16T03:27:28.584Z,99586.31
2018-10-16T03:29:56.121Z,99584.64
2018-10-16T03:32:24.582Z,99589.51
2018-10-16T03:34:52.140Z,99590.72
2018-10-16T03:37:19.691Z,99598.59
2018-10-16T03:39:47.221Z,99588.92
2018-10-16T03:42:14.727Z,99591.98
2018-10-16T03:44:42.398Z,99599.48
2018-10-16T03:47:09.919Z,99607.27
2018-10-16T03:49:37.461Z,99605.00
2018-10-16T03:52:05.085Z,99599.80
2018-10-16T03:54:32.634Z,99603.58
2018-10-16T03:57:00.175Z,99604.40
2018-10-16T03:59:27.855Z,99605.95
2018-10-16T04:01:55.388Z,99611.32
2018-10-16T04:04:22.962Z,99609.56
2018-10-16T04:06:50.549Z,99607.95
2018-10-16T04:09:18.238Z,99608.84
2018-10-16T04:11:45.791Z,99614.61
2018-10-16T04:14:13.342Z,99617.09
2018-10-16T04:16:40.903Z,99605.92
2018-10-16T04:19:08.452Z,99613.23
2018-10-16T04:21:36.051Z,99613.43
2018-10-16T04:24:03.583Z,99609.19
2018-10-16T04:26:31.109Z,99614.81
2018-10-16T04:28:58.710Z,99617.41
2018-10-16T04:31:26.273Z,99622.80
2018-10-16T04:33:53.794Z,99626.05
2018-10-16T04:36:21.523Z,99626.55
2018-10-16T04:38:49.315Z,99622.67
2018-10-16T04:41:16.841Z,99627.87
2018-10-16T04:43:44.431Z,99623.72
2018-10-16T04:46:11.961Z,99627.40
2018-10-16T04:48:39.725Z,99630.20
2018-10-16T04:51:07.272Z,99632.69
2018-10-16T04:53:34.836Z,99621.27
2018-10-16T04:56:02.402Z,99629.41
2018-10-16T04:58:29.930Z,99632.90
2018-10-16T05:00:57.544Z,99631.08
2018-10-16T05:03:25.077Z,99634.98
2018-10-16T05:05:52.615Z,99636.49
2018-10-16T05:08:20.147Z,99638.75
2018-10-16T05:10:47.694Z,99638.36
2018-10-16T05:13:15.249Z,99636.30
2018-10-16T05:15:43.004Z,99641.50
2018-10-16T05:18:10.546Z,99637.03
2018-10-16T05:20:38.103Z,99633.63
2018-10-16T05:23:05.637Z,99641.72
2018-10-16T05:25:33.181Z,99647.75
2018-10-16T05:28:00.782Z,99643.84
2018-10-16T05:30:28.327Z,99646.89
2018-10-16T05:32:55.882Z,99645.33
2018-10-16T05:35:23.416Z,99650.61
2018-10-16T05:37:51.072Z,99652.61
2018-10-16T05:40:18.605Z,99654.30
2018-10-16T05:42:46.238Z,99651.36
2018-10-16T05:45:13.760Z,99654.66
2018-10-16T05:47:41.294Z,99653.68
2018-10-16T05:50:08.804Z,99662.34
2018-10-16T05:52:36.328Z,99657.74
2018-10-16T05:55:03.880Z,99659.12
2018-10-16T05:57:31.390Z,99657.55
2018-10-16T05:59:58.958Z,99663.33
2018-10-16T06:02:26.499Z,99661.20
2018-10-16T06:04:54.034Z,99661.83
2018-10-16T06:07:21.789Z,99667.79
2018-10-16T06:09:49.324Z,99671.70
2018-10-16T06:12:16.933Z,99675.83
2018-10-16T06:14:44.460Z,99679.18
2018-10-16T06:17:12.021Z,99685.09
2018-10-16T06:19:39.585Z,99687.01
2018-10-16T06:22:07.182Z,99691.31
2018-10-16T06:24:34.994Z,99688.45
2018-10-16T06:27:02.495Z,99690.81
2018-10-16T06:29:30.136Z,99689.28
2018-10-16T06:31:57.688Z,99697.79
2018-10-16T06:34:25.216Z,99701.58
2018-10-16T06:36:52.774Z,99701.13
2018-10-16T06:39:20.299Z,99697.59
2018-10-16T06:41:47.940Z,99707.90
2018-10-16T06:44:15.820Z,99707.33
2018-10-16T06:46:43.687Z,99710.24
2018-10-16T06:49:11.237Z,99709.30
2018-10-16T06:51:38.832Z,99712.70
2018-10-16T06:54:06.660Z,99706.14
2018-10-16T06:56:35.606Z,99714.55
2018-10-16T06:59:03.249Z,99716.44
2018-10-16T07:01:31.611Z,99717.41
2018-10-16T07:03:59.335Z,99715.97
2018-10-16T07:06:27.276Z,99720.84
2018-10-16T07:08:55.461Z,99719.09
2018-10-16T07:11:23.343Z,99720.82
2018-10-16T07:13:51.099Z,99722.10
2018-10-16T07:16:18.996Z,99720.34
2018-10-16T07:18:46.677Z,99726.09
2018-10-16T07:21:14.395Z,99725.92
2018-10-16T07:23:42.208Z,99728.92
2018-10-16T07:26:10.120Z,99725.14
2018-10-16T07:28:37.791Z,99729.55
2018-10-16T07:31:05.679Z,99725.98
2018-10-16T07:33:33.378Z,99731.23
2018-10-16T07:36:00.918Z,99723.59
2018-10-16T07:38:28.498Z,99726.25
2018-10-16T07:40:56.146Z,99729.59
2018-10-16T07:43:23.926Z,99721.98
2018-10-16T07:45:52.581Z,99725.41
2018-10-16T07:48:20.294Z,99727.42
2018-10-16T07:50:48.311Z,99727.40
2018-10-16T07:53:16.232Z,99731.39
2018-10-16T07:55:43.818Z,99731.66
2018-10-16T07:58:11.522Z,99737.10
2018-10-16T08:00:39.243Z,99731.39
2018-10-16T08:03:06.973Z,99736.93
2018-10-16T08:05:34.762Z,99733.27
2018-10-16T08:08:02.526Z,99735.70
2018-10-16T08:10:30.314Z,99732.45
2018-10-16T08:12:58.130Z,99733.69
2018-10-16T08:15:25.896Z,99734.97
2018-10-16T08:17:53.826Z,99735.59
2018-10-16T08:20:21.723Z,99726.92
2018-10-16T08:22:49.576Z,99732.42
2018-10-16T08:25:18.394Z,99733.77
2018-10-16T08:27:46.259Z,99729.14
2018-10-16T08:30:13.888Z,99730.88
2018-10-16T08:32:41.562Z,99729.22
2018-10-16T08:35:09.428Z,99727.08
2018-10-16T08:37:37.134Z,99731.33
2018-10-16T08:40:05.087Z,99731.52
2018-10-16T08:42:32.679Z,99731.58
2018-10-16T08:45:00.366Z,99731.88
2018-10-16T08:47:39.773Z,99737.20
2018-10-16T08:50:19.586Z,99738.50
2018-10-16T08:52:47.277Z,99737.04
2018-10-16T08:55:14.986Z,99735.47
2018-10-16T08:57:42.931Z,99733.52
2018-10-16T09:00:10.620Z,99733.80
2018-10-16T09:02:38.287Z,99733.38
2018-10-16T09:05:06.116Z,99734.00
2018-10-16T09:07:33.887Z,99733.30
2018-10-16T09:10:01.619Z,99738.98
2018-10-16T09:12:29.491Z,99738.88
2018-10-16T09:14:59.680Z,99737.41
2018-10-16T09:17:27.325Z,99746.02
2018-10-16T09:19:55.182Z,99742.97
2018-10-16T09:22:22.770Z,99745.47
2018-10-16T09:24:50.414Z,99746.27
2018-10-16T09:27:18.331Z,99747.91
2018-10-16T09:29:46.026Z,99747.91
2018-10-16T09:32:13.669Z,99746.10
2018-10-16T09:34:41.457Z,99748.38
2018-10-16T09:37:09.017Z,99753.13
2018-10-16T09:39:36.931Z,99745.95
2018-10-16T09:42:05.592Z,99751.27
2018-10-16T09:44:33.306Z,99753.16
2018-10-16T09:47:01.017Z,99748.17
2018-10-16T09:49:28.596Z,99757.09
2018-10-16T09:51:56.175Z,99756.34
2018-10-16T09:54:24.730Z,99752.92
2018-10-16T09:56:52.444Z,99757.03
2018-10-16T09:59:20.061Z,99760.81
2018-10-16T10:01:47.641Z,99758.21
2018-10-16T10:04:15.335Z,99758.64
2018-10-16T10:06:42.945Z,99756.79
2018-10-16T10:09:10.510Z,99761.49
2018-10-16T10:11:38.097Z,99760.50
2018-10-16T10:14:05.817Z,99759.94
2018-10-16T10:16:33.770Z,99764.22
2018-10-16T10:19:01.602Z,99756.74
2018-10-16T10:21:29.358Z,99758.88
2018-10-16T10:23:57.114Z,99757.14
2018-10-16T10:26:24.818Z,99759.22
2018-10-16T10:28:52.510Z,99760.86
2018-10-16T10:31:20.119Z,99762.14
2018-10-16T10:33:47.644Z,99752.59
2018-10-16T10:36:15.237Z,99758.72
2018-10-16T10:38:43.033Z,99749.92
2018-10-16T10:41:10.591Z,99750.17
2018-10-16T10:43:38.174Z,99753.06
2018-10-16T10:46:05.782Z,99744.47
2018-10-16T10:48:33.404Z,99744.39
2018-10-16T10:51:01.128Z,99749.67
2018-10-16T10:53:28.676Z,99743.96
2018-10-16T10:55:56.198Z,99747.38
2018-10-16T10:58:24.644Z,99739.99
2018-10-16T11:00:52.227Z,99733.86
2018-10-16T11:03:19.913Z,99736.05
2018-10-16T11:05:47.422Z,99733.16
2018-10-16T11:08:15.082Z,99740.17
2018-10-16T11:10:42.701Z,99729.78
2018-10-16T11:13:10.210Z,99730.29
2018-10-16T11:15:37.850Z,99728.35
2018-10-16T11:18:05.416Z,99732.70
2018-10-16T11:20:33.067Z,99734.24
2018-10-16T11:23:00.845Z,99723.64
2018-10-16T11:25:28.522Z,99723.02
2018-10-16T11:27:56.099Z,99724.88
2018-10-16T11:30:24.638Z,99722.20
2018-10-16T11:32:52.151Z,99727.12
2018-10-16T11:35:19.740Z,99728.05
2018-10-16T11:37:47.369Z,99725.48
2018-10-16T11:40:14.998Z,99724.13
2018-10-16T11:42:42.534Z,99724.95
2018-10-16T11:45:10.197Z,99723.71
2018-10-16T11:47:37.695Z,99725.66
2018-10-16T11:50:05.303Z,99728.86
2018-10-16T11:52:32.893Z,99730.06
2018-10-16T11:55:01.090Z,99725.56
2018-10-16T11:57:28.659Z,99734.00
2018-10-16T11:59:56.189Z,99726.95
2018-10-16T12:02:24.584Z,99731.52
2018-10-16T12:04:52.164Z,99726.82
2018-10-16T12:07:19.751Z,99732.16
2018-10-16T12:09:47.274Z,99731.88
2018-10-16T12:12:14.807Z,99730.41
2018-10-16T12:14:42.366Z,99738.31
2018-10-16T12:17:10.205Z,99733.12
2018-10-16T12:19:37.835Z,99736.24
2018-10-16T12:22:05.342Z,99731.40
2018-10-16T12:24:33.297Z,99735.59
2018-10-16T12:27:00.891Z,99727.77
2018-10-16T12:29:28.657Z,99729.76
2018-10-16T12:31:56.431Z,99726.56
2018-10-16T12:34:24.645Z,99727.64
2018-10-16T12:36:52.274Z,99728.36
2018-10-16T12:39:19.906Z,99732.10
2018-10-16T12:41:47.481Z,99727.63
2018-10-16T12:44:15.063Z,99726.67
2018-10-16T12:46:42.621Z,99720.80
2018-10-16T12:49:10.218Z,99723.21
2018-10-16T12:51:37.822Z,99724.52
2018-10-16T12:54:05.567Z,99721.09
2018-10-16T12:56:33.018Z,99729.56
2018-10-16T12:59:00.607Z,99732.06
2018-10-16T13:01:28.185Z,99726.94
2018-10-16T13:03:55.704Z,99720.39
2018-10-16T13:06:23.292Z,99723.66
2018-10-16T13:08:51.042Z,99726.26
2018-10-16T13:11:18.602Z,99721.88
2018-10-16T13:13:46.145Z,99720.66
2018-10-16T13:16:13.770Z,99723.08
2018-10-16T13:18:41.302Z,99723.51
2018-10-16T13:21:08.911Z,99729.57
2018-10-16T13:23:36.452Z,99725.40
2018-10-16T13:26:04.033Z,99717.24
2018-10-16T13:28:31.608Z,99714.72
2018-10-16T13:30:59.134Z,99713.05
2018-10-16T13:33:26.707Z,99715.05
2018-10-16T13:35:54.235Z,99717.87
2018-10-16T13:38:21.798Z,99714.10
2018-10-16T13:40:49.326Z,99717.45
2018-10-16T13:43:16.906Z,99717.33
2018-10-16T13:45:44.517Z,99715.16
2018-10-16T13:48:12.083Z,99710.22
2018-10-16T13:50:39.675Z,99718.80
2018-10-16T13:53:07.204Z,99718.48
2018-10-16T13:55:34.787Z,99715.86
2018-10-16T13:58:02.465Z,99715.16
2018-10-16T14:00:30.013Z,99716.61
2018-10-16T14:02:57.612Z,99714.88
2018-10-16T14:05:25.353Z,99710.18
2018-10-16T14:07:52.972Z,99719.39
2018-10-16T14:10:20.592Z,99715.50
2018-10-16T14:12:48.379Z,99719.95
2018-10-16T14:15:16.112Z,99717.00
2018-10-16T14:17:43.675Z,99722.36
2018-10-16T14:20:11.303Z,99720.14
2018-10-16T14:22:38.823Z,99722.86
2018-10-16T14:25:06.472Z,99722.97
2018-10-16T14:27:34.087Z,99721.41
2018-10-16T14:30:01.615Z,99718.91
2018-10-16T14:32:29.208Z,99717.86
2018-10-16T14:34:56.777Z,99717.73
2018-10-16T14:37:24.461Z,99714.91
2018-10-16T14:39:52.058Z,99719.09
2018-10-16T14:42:19.693Z,99716.18
2018-10-16T14:44:47.257Z,99723.91
2018-10-16T14:47:14.957Z,99721.21
2018-10-16T14:49:42.466Z,99716.52
2018-10-16T14:52:10.248Z,99721.61
2018-10-16T14:54:37.759Z,99720.91
2018-10-16T14:57:05.416Z,99722.16
2018-10-16T14:59:32.933Z,99714.31
2018-10-16T15:02:00.520Z,99716.92
2018-10-16T15:04:28.082Z,99709.92
2018-10-16T15:06:55.597Z,99717.97
2018-10-16T15:09:23.135Z,99709.62
2018-10-16T15:11:50.741Z,99710.13
2018-10-16T15:14:18.352Z,99713.89
2018-10-16T15:16:45.991Z,99713.38
2018-10-16T15:19:13.575Z,99716.41
2018-10-16T15:21:41.092Z,99709.92
2018-10-16T15:24:08.706Z,99713.38
2018-10-16T15:26:36.273Z,99708.45
2018-10-16T15:29:03.821Z,99712.41
2018-10-16T15:31:31.393Z,99705.22
2018-10-16T15:33:58.965Z,99707.82
2018-10-16T15:36:26.585Z,99708.67
2018-10-16T15:38:54.200Z,99711.59
2018-10-16T15:41:21.759Z,99709.80
2018-10-16T15:43:49.612Z,99703.97
2018-10-16T15:46:17.131Z,99706.57
2018-10-16T15:48:44.708Z,99711.70
2018-10-16T15:51:12.257Z,99711.58
2018-10-16T15:53:39.825Z,99713.80
2018-10-16T15:56:07.407Z,99714.09
2018-10-16T15:58:34.942Z,99717.74
2018-10-16T16:01:02.529Z,99715.45
2018-10-16T16:03:30.105Z,99718.77
2018-10-16T16:05:57.649Z,99716.17
2018-10-16T16:08:25.481Z,99713.70
2018-10-16T16:10:52.987Z,99714.45
2018-10-16T16:13:20.572Z,99720.91
2018-10-16T16:15:48.101Z,99718.17
2018-10-16T16:18:15.689Z,99725.38
2018-10-16T16:20:43.280Z,99725.34
2018-10-16T16:23:10.846Z,99729.83
2018-10-16T16:25:38.423Z,99727.39
2018-10-16T16:28:06.074Z,99731.36
2018-10-16T16:30:33.541Z,99730.30
2018-10-16T16:33:01.122Z,99730.08
2018-10-16T16:35:28.701Z,99734.75
2018-10-16T16:37:56.271Z,99731.08
2018-10-16T16:40:23.868Z,99735.30
2018-10-16T16:42:51.400Z,99733.24
2018-10-16T16:45:19.159Z,99741.02
2018-10-16T16:47:46.700Z,99743.90
2018-10-16T16:50:14.357Z,99739.60
2018-10-16T16:52:41.880Z,99746.51
2018-10-16T16:55:09.479Z,99738.70
2018-10-16T16:57:37.009Z,99746.36
2018-10-16T17:00:04.555Z,99742.52
2018-10-16T17:02:32.124Z,99747.02
2018-10-16T17:04:59.797Z,99744.46
2018-10-16T17:07:27.348Z,99747.49
2018-10-16T17:09:54.892Z,99745.80
2018-10-16T17:12:22.475Z,99746.38
2018-10-16T17:14:50.020Z,99742.11
2018-10-16T17:17:17.621Z,99744.03
2018-10-16T17:19:45.135Z,99746.07
2018-10-16T17:22:12.786Z,99748.66
2018-10-16T17:24:40.499Z,99742.30
2018-10-16T17:27:08.105Z,99748.95
2018-10-16T17:29:35.868Z,99752.27
2018-10-16T17:32:03.509Z,99760.72
2018-10-16T17:34:31.110Z,99767.89
2018-10-16T17:36:58.811Z,99769.38
2018-10-16T17:39:26.396Z,99771.38
2018-10-16T17:41:54.262Z,99771.70
2018-10-16T17:44:21.962Z,99774.05
2018-10-16T17:46:49.667Z,99774.82
2018-10-16T17:49:19.022Z,99772.98
2018-10-16T17:51:46.773Z,99779.41
2018-10-16T17:54:14.432Z,99766.74
2018-10-16T17:56:42.046Z,99769.95
2018-10-16T17:59:09.746Z,99769.09
2018-10-16T18:01:37.513Z,99772.61
2018-10-16T18:04:05.245Z,99769.59
2018-10-16T18:06:32.895Z,99775.65
2018-10-16T18:09:00.520Z,99778.20
2018-10-16T18:11:28.116Z,99774.32
2018-10-16T18:13:55.706Z,99779.73
2018-10-16T18:16:23.464Z,99773.85
2018-10-16T18:18:51.425Z,99774.03
2018-10-16T18:21:19.166Z,99775.83
2018-10-16T18:23:46.908Z,99777.32
2018-10-16T18:26:14.593Z,99771.01
2018-10-16T18:28:42.401Z,99776.74
2018-10-16T18:31:10.097Z,99771.61
2018-10-16T18:33:37.686Z,99773.34
2018-10-16T18:36:05.341Z,99783.27
2018-10-16T18:38:32.989Z,99780.12
2018-10-16T18:41:00.569Z,99786.97
2018-10-16T18:43:28.163Z,99783.15
2018-10-16T18:45:55.689Z,99784.08
2018-10-16T18:48:23.213Z,99786.72
2018-10-16T18:50:50.813Z,99780.29
2018-10-16T18:53:18.319Z,99783.71
2018-10-16T18:55:45.889Z,99784.70
2018-10-16T18:58:13.482Z,99786.70
2018-10-16T19:00:41.005Z,99785.93
2018-10-16T19:03:09.339Z,99785.95
2018-10-16T19:05:36.906Z,99779.23
2018-10-16T19:08:04.494Z,99784.33
2018-10-16T19:10:32.104Z,99786.30
2018-10-16T19:12:59.669Z,99783.79
2018-10-16T19:15:27.348Z,99788.36
2018-10-16T19:17:55.007Z,99789.05
2018-10-16T19:20:22.600Z,99788.84
2018-10-16T19:22:50.123Z,99786.48
2018-10-16T19:25:17.675Z,99796.58
2018-10-16T19:27:45.332Z,99790.90
2018-10-16T19:30:12.813Z,99794.18
2018-10-16T19:32:40.398Z,99799.89
2018-10-16T19:35:07.939Z,99790.59
2018-10-16T19:37:35.480Z,99793.25
2018-10-16T19:40:03.036Z,99793.02
2018-10-16T19:42:30.575Z,99795.28
2018-10-16T19:44:58.214Z,99800.59
2018-10-16T19:47:25.738Z,99801.84
2018-10-16T19:49:53.306Z,99800.36
2018-10-16T19:52:20.824Z,99795.55
2018-10-16T19:54:48.471Z,99798.43
2018-10-16T19:57:16.111Z,99802.84
2018-10-16T19:59:43.689Z,99801.59
2018-10-16T20:02:11.195Z,99803.93
2018-10-16T20:04:38.787Z,99800.97
2018-10-16T20:07:06.428Z,99802.50
2018-10-16T20:09:34.230Z,99806.03
2018-10-16T20:12:01.793Z,99806.06
2018-10-16T20:14:29.316Z,99807.15
2018-10-16T20:16:56.971Z,99810.06
2018-10-16T20:19:24.506Z,99809.59
2018-10-16T20:21:52.311Z,99810.25
2018-10-16T20:24:19.890Z,99813.22
2018-10-16T20:26:47.550Z,99814.67
2018-10-16T20:29:15.112Z,99813.83
2018-10-16T20:31:42.709Z,99812.69
2018-10-16T20:34:10.218Z,99811.33
2018-10-16T20:36:37.901Z,99809.82
2018-10-16T20:39:09.022Z,99812.33
2018-10-16T20:41:36.738Z,99804.97
2018-10-16T20:44:06.282Z,99812.49
2018-10-16T20:46:33.872Z,99805.48
2018-10-16T20:49:01.579Z,99809.89
2018-10-16T20:51:29.282Z,99810.46
2018-10-16T20:53:56.974Z,99810.19
2018-10-16T20:56:24.563Z,99806.99
2018-10-16T20:58:52.141Z,99810.02
2018-10-16T21:01:19.934Z,99810.46
2018-10-16T21:03:47.637Z,99805.11
2018-10-16T21:06:21.079Z,99807.39
2018-10-16T21:08:48.672Z,99811.94
2018-10-16T21:11:16.312Z,99807.53
2018-10-16T21:13:44.079Z,99808.71
2018-10-16T21:16:11.825Z,99803.70
2018-10-16T21:18:39.632Z,99808.18
2018-10-16T21:21:09.378Z,99801.73
2018-10-16T21:23:37.208Z,99797.28
2018-10-16T21:26:04.979Z,99792.88
2018-10-16T21:28:32.706Z,99792.33
2018-10-16T21:31:00.517Z,99795.16
2018-10-16T21:33:28.307Z,99797.07
2018-10-16T21:35:56.788Z,99794.94
2018-10-16T21:38:24.441Z,99790.53
2018-10-16T21:40:52.118Z,99790.20
2018-10-16T21:43:19.825Z,99791.77
2018-10-16T21:45:47.636Z,99789.50
2018-10-16T21:48:15.271Z,99787.77
2018-10-16T21:50:42.936Z,99793.69
2018-10-16T21:53:11.607Z,99786.51
2018-10-16T21:55:39.243Z,99787.94
2018-10-16T21:58:07.215Z,99790.05
2018-10-16T22:00:34.962Z,99788.45
2018-10-16T22:03:03.688Z,99793.66
2018-10-16T22:05:31.378Z,99794.75
2018-10-16T22:07:59.117Z,99796.86
2018-10-16T22:10:26.800Z,99791.03
2018-10-16T22:12:54.441Z,99795.50
2018-10-16T22:15:22.200Z,99797.74
2018-10-16T22:17:49.719Z,99795.93
2018-10-16T22:20:17.536Z,99794.30
2018-10-16T22:22:46.957Z,99789.44
2018-10-16T22:25:14.892Z,99790.44
2018-10-16T22:27:42.439Z,99793.96
2018-10-16T22:30:09.953Z,99795.59
2018-10-16T22:32:37.535Z,99783.47
2018-10-16T22:35:05.118Z,99780.91
2018-10-16T22:37:32.646Z,99776.93
2018-10-16T22:40:03.404Z,99780.37
2018-10-16T22:42:32.173Z,99772.61
2018-10-16T22:44:59.695Z,99774.69
2018-10-16T22:47:27.259Z,99773.37
2018-10-16T22:49:54.819Z,99771.65
2018-10-16T22:52:22.336Z,99773.35
2018-10-16T22:54:49.891Z,99771.30
2018-10-16T22:57:18.630Z,99768.56
2018-10-16T22:59:49.365Z,99770.37
2018-10-16T23:02:17.460Z,99770.61
2018-10-16T23:04:45.967Z,99766.33
2018-10-16T23:07:13.643Z,99767.86
2018-10-16T23:09:41.126Z,99767.31
2018-10-16T23:12:08.728Z,99771.48
2018-10-16T23:14:36.306Z,99766.22
2018-10-16T23:17:03.924Z,99775.42
2018-10-16T23:19:31.495Z,99771.50
2018-10-16T23:22:07.784Z,99767.36
2018-10-16T23:24:35.294Z,99774.20
2018-10-16T23:27:04.462Z,99770.69
2018-10-16T23:29:32.174Z,99770.08
2018-10-16T23:31:59.687Z,99768.02
2018-10-16T23:34:28.420Z,99766.02
2018-10-16T23:36:56.020Z,99766.64
2018-10-16T23:39:26.415Z,99767.18
2018-10-16T23:41:53.936Z,99768.88
2018-10-16T23:44:21.534Z,99763.51
2018-10-16T23:46:49.118Z,99756.69
2018-10-16T23:49:18.428Z,99760.11
2018-10-16T23:51:47.092Z,99756.41
2018-10-16T23:54:17.952Z,99754.99
2018-10-16T23:56:47.972Z,99751.89
2018-10-16T23:59:15.712Z,99752.50
